sensor_id;sensor_type;location;lat;lon;timestamp;pressure;altitude;pressure_sealevel;temperature;humidity
73692;BME280;61996;49.910;35.562;2023-05-29T00:00:09;99537.63;;;21.59;36.91
73692;BME280;61996;49.910;35.562;2023-05-29T00:03:13;99546.94;;;21.55;36.17
73692;BME280;61996;49.910;35.562;2023-05-29T00:06:16;99540.94;;;21.53;35.98
73692;BME280;61996;49.910;35.562;2023-05-29T00:09:20;99545.19;;;22.48;36.09
73692;BME280;61996;49.910;35.562;2023-05-29T00:12:23;99541.94;;;23.03;35.41
73692;BME280;61996;49.910;35.562;2023-05-29T00:15:26;99538.22;;;23.20;35.07
73692;BME280;61996;49.910;35.562;2023-05-29T00:18:29;99545.78;;;23.17;35.25
73692;BME280;61996;49.910;35.562;2023-05-29T00:21:32;99536.19;;;23.22;34.94
73692;BME280;61996;49.910;35.562;2023-05-29T00:24:36;99542.41;;;23.31;34.86
73692;BME280;61996;49.910;35.562;2023-05-29T00:27:39;99547.25;;;23.28;35.11
73692;BME280;61996;49.910;35.562;2023-05-29T00:30:42;99544.06;;;23.32;34.82
73692;BME280;61996;49.910;35.562;2023-05-29T00:33:44;99531.31;;;23.34;35.25
73692;BME280;61996;49.910;35.562;2023-05-29T00:36:47;99533.81;;;23.36;34.92
73692;BME280;61996;49.910;35.562;2023-05-29T00:39:51;99526.75;;;23.43;35.21
73692;BME280;61996;49.910;35.562;2023-05-29T00:42:54;99532.28;;;23.49;35.14
73692;BME280;61996;49.910;35.562;2023-05-29T00:45:57;99529.63;;;23.41;34.85
73692;BME280;61996;49.910;35.562;2023-05-29T00:49:00;99528.13;;;23.47;35.08
73692;BME280;61996;49.910;35.562;2023-05-29T00:52:03;99534.16;;;23.41;35.14
73692;BME280;61996;49.910;35.562;2023-05-29T00:55:09;99539.00;;;23.53;34.80
73692;BME280;61996;49.910;35.562;2023-05-29T00:58:13;99542.03;;;23.50;35.14
73692;BME280;61996;49.910;35.562;2023-05-29T01:01:15;99533.63;;;23.53;34.93
73692;BME280;61996;49.910;35.562;2023-05-29T01:04:18;99536.31;;;23.53;35.00
73692;BME280;61996;49.910;35.562;2023-05-29T01:07:22;99536.97;;;23.56;35.09
73692;BME280;61996;49.910;35.562;2023-05-29T01:10:27;99534.28;;;23.56;35.17
73692;BME280;61996;49.910;35.562;2023-05-29T01:13:30;99548.06;;;23.52;35.11
73692;BME280;61996;49.910;35.562;2023-05-29T01:16:35;99542.34;;;23.64;35.15
73692;BME280;61996;49.910;35.562;2023-05-29T01:23:18;99537.66;;;23.58;35.20
73692;BME280;61996;49.910;35.562;2023-05-29T01:29:47;99553.44;;;23.61;35.23
73692;BME280;61996;49.910;35.562;2023-05-29T01:32:52;99550.06;;;23.59;34.98
73692;BME280;61996;49.910;35.562;2023-05-29T01:35:55;99560.50;;;23.62;35.11
73692;BME280;61996;49.910;35.562;2023-05-29T01:38:58;99559.66;;;23.61;35.15
73692;BME280;61996;49.910;35.562;2023-05-29T01:42:01;99573.91;;;23.62;35.18
73692;BME280;61996;49.910;35.562;2023-05-29T01:45:06;99564.50;;;23.58;35.11
73692;BME280;61996;49.910;35.562;2023-05-29T01:48:10;99559.97;;;23.58;35.17
73692;BME280;61996;49.910;35.562;2023-05-29T01:51:13;99557.13;;;23.60;35.34
73692;BME280;61996;49.910;35.562;2023-05-29T01:54:15;99555.13;;;23.62;35.18
73692;BME280;61996;49.910;35.562;2023-05-29T01:57:18;99547.72;;;23.64;35.14
73692;BME280;61996;49.910;35.562;2023-05-29T02:00:23;99550.06;;;23.59;35.27
73692;BME280;61996;49.910;35.562;2023-05-29T02:03:25;99545.03;;;23.56;35.54
73692;BME280;61996;49.910;35.562;2023-05-29T02:06:30;99542.53;;;23.62;35.28
73692;BME280;61996;49.910;35.562;2023-05-29T02:09:34;99540.50;;;23.56;35.50
73692;BME280;61996;49.910;35.562;2023-05-29T02:12:37;99537.66;;;23.58;35.46
73692;BME280;61996;49.910;35.562;2023-05-29T02:15:41;99538.00;;;23.55;35.31
73692;BME280;61996;49.910;35.562;2023-05-29T02:18:44;99532.13;;;23.67;35.43
73692;BME280;61996;49.910;35.562;2023-05-29T02:21:47;99540.69;;;23.55;35.22
73692;BME280;61996;49.910;35.562;2023-05-29T02:24:50;99541.84;;;23.60;35.70
73692;BME280;61996;49.910;35.562;2023-05-29T02:27:53;99530.44;;;23.66;35.39
73692;BME280;61996;49.910;35.562;2023-05-29T02:30:57;99534.97;;;23.66;35.20
73692;BME280;61996;49.910;35.562;2023-05-29T02:34:00;99532.44;;;23.72;34.97
73692;BME280;61996;49.910;35.562;2023-05-29T02:37:03;99536.16;;;23.71;35.13
73692;BME280;61996;49.910;35.562;2023-05-29T02:40:06;99541.00;;;23.68;35.06
73692;BME280;61996;49.910;35.562;2023-05-29T02:43:12;99535.28;;;23.71;35.22
73692;BME280;61996;49.910;35.562;2023-05-29T02:46:16;99540.31;;;23.74;35.40
73692;BME280;61996;49.910;35.562;2023-05-29T02:49:19;99536.00;;;23.65;35.25
73692;BME280;61996;49.910;35.562;2023-05-29T02:52:22;99533.97;;;23.67;35.04
73692;BME280;61996;49.910;35.562;2023-05-29T02:55:25;99534.28;;;23.72;35.27
73692;BME280;61996;49.910;35.562;2023-05-29T02:58:27;99543.19;;;23.64;35.14
73692;BME280;61996;49.910;35.562;2023-05-29T03:01:31;99544.88;;;23.65;34.91
73692;BME280;61996;49.910;35.562;2023-05-29T03:04:36;99545.50;;;23.75;34.75
73692;BME280;61996;49.910;35.562;2023-05-29T03:07:39;99544.16;;;23.79;34.91
73692;BME280;61996;49.910;35.562;2023-05-29T03:10:42;99547.34;;;23.83;35.15
73692;BME280;61996;49.910;35.562;2023-05-29T03:13:46;99550.19;;;23.82;35.01
73692;BME280;61996;49.910;35.562;2023-05-29T03:16:52;99551.88;;;23.83;34.96
73692;BME280;61996;49.910;35.562;2023-05-29T03:19:54;99553.06;;;23.80;35.26
73692;BME280;61996;49.910;35.562;2023-05-29T03:22:59;99562.47;;;23.76;34.84
73692;BME280;61996;49.910;35.562;2023-05-29T03:26:01;99551.22;;;23.81;34.73
73692;BME280;61996;49.910;35.562;2023-05-29T03:29:04;99557.59;;;23.79;34.75
73692;BME280;61996;49.910;35.562;2023-05-29T03:32:09;99553.88;;;23.89;34.79
73692;BME280;61996;49.910;35.562;2023-05-29T03:35:11;99566.97;;;23.84;34.66
73692;BME280;61996;49.910;35.562;2023-05-29T03:38:14;99557.25;;;23.83;35.10
73692;BME280;61996;49.910;35.562;2023-05-29T03:41:17;99561.09;;;23.88;34.81
73692;BME280;61996;49.910;35.562;2023-05-29T03:44:20;99560.72;;;23.91;34.74
73692;BME280;61996;49.910;35.562;2023-05-29T03:47:24;99559.09;;;23.82;34.77
73692;BME280;61996;49.910;35.562;2023-05-29T03:50:27;99560.56;;;23.93;34.80
73692;BME280;61996;49.910;35.562;2023-05-29T03:53:29;99558.03;;;23.99;34.67
73692;BME280;61996;49.910;35.562;2023-05-29T03:56:32;99558.88;;;24.00;34.84
73692;BME280;61996;49.910;35.562;2023-05-29T03:59:36;99558.50;;;24.03;34.48
73692;BME280;61996;49.910;35.562;2023-05-29T04:02:40;99572.78;;;24.03;34.59
73692;BME280;61996;49.910;35.562;2023-05-29T04:05:43;99573.78;;;24.02;34.33
73692;BME280;61996;49.910;35.562;2023-05-29T04:08:46;99579.53;;;23.99;34.81
73692;BME280;61996;49.910;35.562;2023-05-29T04:11:49;99579.16;;;24.02;34.80
73692;BME280;61996;49.910;35.562;2023-05-29T04:14:53;99575.47;;;24.03;34.66
73692;BME280;61996;49.910;35.562;2023-05-29T04:17:57;99580.97;;;24.10;34.98
73692;BME280;61996;49.910;35.562;2023-05-29T04:21:00;99581.81;;;24.11;34.69
73692;BME280;61996;49.910;35.562;2023-05-29T04:24:03;99585.00;;;24.06;34.11
73692;BME280;61996;49.910;35.562;2023-05-29T04:27:06;99584.16;;;24.05;35.28
73692;BME280;61996;49.910;35.562;2023-05-29T04:30:10;99588.38;;;24.08;34.74
73692;BME280;61996;49.910;35.562;2023-05-29T04:33:14;99591.25;;;24.06;34.48
73692;BME280;61996;49.910;35.562;2023-05-29T04:36:17;99590.88;;;24.10;34.29
73692;BME280;61996;49.910;35.562;2023-05-29T04:39:20;99585.16;;;24.13;34.55
73692;BME280;61996;49.910;35.562;2023-05-29T04:42:24;99585.66;;;24.16;34.83
73692;BME280;61996;49.910;35.562;2023-05-29T04:45:27;99589.69;;;24.20;34.24
73692;BME280;61996;49.910;35.562;2023-05-29T04:48:32;99591.34;;;24.21;34.30
73692;BME280;61996;49.910;35.562;2023-05-29T04:51:35;99590.16;;;24.24;34.18
73692;BME280;61996;49.910;35.562;2023-05-29T04:54:41;99591.34;;;24.21;34.17
73692;BME280;61996;49.910;35.562;2023-05-29T04:57:44;99589.13;;;24.25;34.35
73692;BME280;61996;49.910;35.562;2023-05-29T05:00:47;99584.44;;;24.35;34.14
73692;BME280;61996;49.910;35.562;2023-05-29T05:03:51;99580.53;;;24.38;34.02
73692;BME280;61996;49.910;35.562;2023-05-29T05:06:57;99581.06;;;24.33;34.32
73692;BME280;61996;49.910;35.562;2023-05-29T05:10:00;99588.97;;;24.35;34.14
73692;BME280;61996;49.910;35.562;2023-05-29T05:13:02;99580.50;;;24.46;34.15
73692;BME280;61996;49.910;35.562;2023-05-29T05:16:08;99575.97;;;24.46;34.36
73692;BME280;61996;49.910;35.562;2023-05-29T05:19:13;99575.44;;;24.51;33.87
73692;BME280;61996;49.910;35.562;2023-05-29T05:22:15;99574.91;;;24.55;33.86
73692;BME280;61996;49.910;35.562;2023-05-29T05:25:18;99569.69;;;24.54;34.05
73692;BME280;61996;49.910;35.562;2023-05-29T05:28:21;99568.69;;;24.55;33.94
73692;BME280;61996;49.910;35.562;2023-05-29T05:31:24;99577.53;;;24.64;33.82
73692;BME280;61996;49.910;35.562;2023-05-29T05:34:28;99581.13;;;24.56;34.35
73692;BME280;61996;49.910;35.562;2023-05-29T05:37:31;99571.84;;;24.58;34.31
73692;BME280;61996;49.910;35.562;2023-05-29T05:40:34;99575.25;;;24.52;34.33
73692;BME280;61996;49.910;35.562;2023-05-29T05:43:37;99576.63;;;24.48;33.64
73692;BME280;61996;49.910;35.562;2023-05-29T05:46:39;99582.28;;;24.53;34.50
73692;BME280;61996;49.910;35.562;2023-05-29T05:49:44;99585.47;;;24.57;33.77
73692;BME280;61996;49.910;35.562;2023-05-29T05:52:47;99586.91;;;24.68;34.18
73692;BME280;61996;49.910;35.562;2023-05-29T05:55:50;99590.09;;;24.71;33.81
73692;BME280;61996;49.910;35.562;2023-05-29T05:58:53;99587.97;;;24.36;34.14
73692;BME280;61996;49.910;35.562;2023-05-29T06:01:56;99575.19;;;24.29;35.06
73692;BME280;61996;49.910;35.562;2023-05-29T06:05:00;99577.19;;;24.67;34.34
73692;BME280;61996;49.910;35.562;2023-05-29T06:08:03;99582.16;;;24.78;34.58
73692;BME280;61996;49.910;35.562;2023-05-29T06:11:06;99590.22;;;24.78;34.54
73692;BME280;61996;49.910;35.562;2023-05-29T06:14:08;99586.44;;;24.87;34.22
73692;BME280;61996;49.910;35.562;2023-05-29T06:17:11;99579.78;;;24.83;34.49
73692;BME280;61996;49.910;35.562;2023-05-29T06:20:15;99582.75;;;24.88;34.31
73692;BME280;61996;49.910;35.562;2023-05-29T06:23:18;99581.72;;;24.89;34.28
73692;BME280;61996;49.910;35.562;2023-05-29T06:26:21;99585.28;;;24.90;34.25
73692;BME280;61996;49.910;35.562;2023-05-29T06:29:25;99587.78;;;24.91;34.39
73692;BME280;61996;49.910;35.562;2023-05-29T06:32:27;99592.97;;;24.93;34.35
73692;BME280;61996;49.910;35.562;2023-05-29T06:35:32;99582.53;;;24.98;34.20
73692;BME280;61996;49.910;35.562;2023-05-29T06:38:35;99596.44;;;25.01;34.36
73692;BME280;61996;49.910;35.562;2023-05-29T06:41:37;99592.91;;;25.01;34.20
73692;BME280;61996;49.910;35.562;2023-05-29T06:44:40;99591.06;;;25.01;34.12
73692;BME280;61996;49.910;35.562;2023-05-29T06:47:43;99590.03;;;25.02;33.99
73692;BME280;61996;49.910;35.562;2023-05-29T06:50:48;99591.41;;;25.06;34.40
73692;BME280;61996;49.910;35.562;2023-05-29T06:53:50;99583.13;;;25.08;34.49
73692;BME280;61996;49.910;35.562;2023-05-29T06:56:53;99580.25;;;25.09;34.50
73692;BME280;61996;49.910;35.562;2023-05-29T07:00:11;99580.75;;;25.13;34.66
73692;BME280;61996;49.910;35.562;2023-05-29T07:03:14;99583.63;;;25.11;34.37
73692;BME280;61996;49.910;35.562;2023-05-29T07:06:19;99572.47;;;25.14;34.50
73692;BME280;61996;49.910;35.562;2023-05-29T07:09:22;99574.84;;;25.18;34.70
73692;BME280;61996;49.910;35.562;2023-05-29T07:12:26;99569.59;;;25.16;34.37
73692;BME280;61996;49.910;35.562;2023-05-29T07:15:29;99577.97;;;25.21;34.79
73692;BME280;61996;49.910;35.562;2023-05-29T07:18:31;99572.59;;;25.21;34.65
73692;BME280;61996;49.910;35.562;2023-05-29T07:21:35;99578.47;;;25.25;34.70
73692;BME280;61996;49.910;35.562;2023-05-29T07:24:38;99564.81;;;25.26;34.29
73692;BME280;61996;49.910;35.562;2023-05-29T07:27:42;99580.97;;;25.26;34.54
73692;BME280;61996;49.910;35.562;2023-05-29T07:30:44;99582.63;;;25.27;34.60
73692;BME280;61996;49.910;35.562;2023-05-29T07:33:47;99586.16;;;25.28;34.58
73692;BME280;61996;49.910;35.562;2023-05-29T07:36:59;99581.09;;;25.33;34.66
73692;BME280;61996;49.910;35.562;2023-05-29T07:40:02;99582.94;;;25.32;34.75
73692;BME280;61996;49.910;35.562;2023-05-29T07:43:07;99584.59;;;25.33;35.01
73692;BME280;61996;49.910;35.562;2023-05-29T07:46:09;99584.13;;;25.30;34.67
73692;BME280;61996;49.910;35.562;2023-05-29T07:49:12;99590.44;;;25.37;34.93
73692;BME280;61996;49.910;35.562;2023-05-29T07:52:17;99583.41;;;25.36;34.73
73692;BME280;61996;49.910;35.562;2023-05-29T07:55:23;99583.88;;;25.39;34.42
73692;BME280;61996;49.910;35.562;2023-05-29T07:58:26;99579.97;;;25.42;34.78
73692;BME280;61996;49.910;35.562;2023-05-29T08:01:29;99579.34;;;25.40;34.47
73692;BME280;61996;49.910;35.562;2023-05-29T08:04:32;99589.81;;;25.35;34.96
73692;BME280;61996;49.910;35.562;2023-05-29T08:07:36;99574.59;;;25.42;34.70
73692;BME280;61996;49.910;35.562;2023-05-29T08:10:39;99571.50;;;25.45;34.86
73692;BME280;61996;49.910;35.562;2023-05-29T08:13:42;99576.44;;;25.41;34.88
73692;BME280;61996;49.910;35.562;2023-05-29T09:24:58;99518.06;;;24.81;35.51
73692;BME280;61996;49.910;35.562;2023-05-29T09:28:02;99516.91;;;24.84;35.55
73692;BME280;61996;49.910;35.562;2023-05-29T09:31:13;99511.84;;;24.81;35.92
73692;BME280;61996;49.910;35.562;2023-05-29T09:34:16;99515.38;;;24.81;35.96
73692;BME280;61996;49.910;35.562;2023-05-29T09:37:19;99522.91;;;24.86;35.63
73692;BME280;61996;49.910;35.562;2023-05-29T09:40:25;99518.56;;;24.85;35.75
73692;BME280;61996;49.910;35.562;2023-05-29T09:43:28;99516.22;;;24.82;35.96
73692;BME280;61996;49.910;35.562;2023-05-29T09:46:35;99517.22;;;24.81;35.96
73692;BME280;61996;49.910;35.562;2023-05-29T09:49:40;99516.06;;;24.83;35.99
73692;BME280;61996;49.910;35.562;2023-05-29T09:52:43;99496.84;;;24.86;35.43
73692;BME280;61996;49.910;35.562;2023-05-29T09:55:47;99493.34;;;24.86;35.92
73692;BME280;61996;49.910;35.562;2023-05-29T09:58:52;99495.31;;;24.92;36.24
73692;BME280;61996;49.910;35.562;2023-05-29T10:01:57;99496.97;;;24.93;35.99
73692;BME280;61996;49.910;35.562;2023-05-29T10:05:03;99487.41;;;24.91;36.18
73692;BME280;61996;49.910;35.562;2023-05-29T10:08:07;99483.75;;;25.06;35.99
73692;BME280;61996;49.910;35.562;2023-05-29T10:11:13;99491.56;;;25.16;35.75
73692;BME280;61996;49.910;35.562;2023-05-29T10:14:18;99478.50;;;25.28;35.25
73692;BME280;61996;49.910;35.562;2023-05-29T10:17:23;99478.09;;;25.16;35.90
73692;BME280;61996;49.910;35.562;2023-05-29T10:20:29;99462.63;;;25.18;36.07
73692;BME280;61996;49.910;35.562;2023-05-29T10:23:32;99469.31;;;25.22;36.08
73692;BME280;61996;49.910;35.562;2023-05-29T10:26:39;99464.75;;;25.23;36.03
73692;BME280;61996;49.910;35.562;2023-05-29T10:29:43;99453.53;;;25.19;36.12
73692;BME280;61996;49.910;35.562;2023-05-29T10:33:09;99466.41;;;25.24;36.14
73692;BME280;61996;49.910;35.562;2023-05-29T10:36:16;99466.06;;;25.27;36.06
73692;BME280;61996;49.910;35.562;2023-05-29T10:39:22;99461.13;;;25.30;35.84
73692;BME280;61996;49.910;35.562;2023-05-29T10:42:42;99456.59;;;25.31;35.99
73692;BME280;61996;49.910;35.562;2023-05-29T10:45:50;99463.66;;;25.32;36.10
73692;BME280;61996;49.910;35.562;2023-05-29T10:48:56;99464.50;;;25.32;36.18
73692;BME280;61996;49.910;35.562;2023-05-29T10:52:00;99474.69;;;25.37;35.90
73692;BME280;61996;49.910;35.562;2023-05-29T10:55:03;99475.81;;;25.42;35.77
73692;BME280;61996;49.910;35.562;2023-05-29T10:58:07;99483.69;;;25.44;36.09
73692;BME280;61996;49.910;35.562;2023-05-29T11:01:10;99473.31;;;25.56;35.36
73692;BME280;61996;49.910;35.562;2023-05-29T11:04:27;99474.53;;;25.53;35.73
73692;BME280;61996;49.910;35.562;2023-05-29T11:07:33;99476.56;;;25.51;35.53
73692;BME280;61996;49.910;35.562;2023-05-29T11:10:43;99473.03;;;25.51;35.71
73692;BME280;61996;49.910;35.562;2023-05-29T11:13:52;99466.81;;;25.50;35.86
73692;BME280;61996;49.910;35.562;2023-05-29T11:16:55;99463.91;;;25.52;35.97
73692;BME280;61996;49.910;35.562;2023-05-29T11:20:01;99452.59;;;25.56;35.78
73692;BME280;61996;49.910;35.562;2023-05-29T11:23:07;99448.25;;;25.55;35.77
73692;BME280;61996;49.910;35.562;2023-05-29T11:26:10;99444.06;;;25.53;35.80
73692;BME280;61996;49.910;35.562;2023-05-29T11:29:15;99447.22;;;25.56;35.97
73692;BME280;61996;49.910;35.562;2023-05-29T11:32:21;99451.94;;;25.69;35.47
73692;BME280;61996;49.910;35.562;2023-05-29T11:35:25;99449.25;;;25.69;35.48
73692;BME280;61996;49.910;35.562;2023-05-29T11:38:28;99441.38;;;25.67;35.64
73692;BME280;61996;49.910;35.562;2023-05-29T11:41:31;99440.69;;;25.65;36.00
73692;BME280;61996;49.910;35.562;2023-05-29T11:44:35;99441.38;;;25.67;35.84
73692;BME280;61996;49.910;35.562;2023-05-29T11:47:54;99439.81;;;25.73;35.66
73692;BME280;61996;49.910;35.562;2023-05-29T11:50:57;99437.66;;;25.68;35.90
73692;BME280;61996;49.910;35.562;2023-05-29T11:54:07;99439.13;;;25.71;35.70
73692;BME280;61996;49.910;35.562;2023-05-29T11:57:12;99447.69;;;25.75;35.52
73692;BME280;61996;49.910;35.562;2023-05-29T12:00:21;99436.09;;;25.74;35.76
73692;BME280;61996;49.910;35.562;2023-05-29T12:03:23;99424.50;;;25.74;35.76
73692;BME280;61996;49.910;35.562;2023-05-29T12:06:30;99421.41;;;25.77;35.55
73692;BME280;61996;49.910;35.562;2023-05-29T12:09:33;99426.78;;;25.77;35.81
73692;BME280;61996;49.910;35.562;2023-05-29T12:12:36;99417.50;;;25.79;35.57
73692;BME280;61996;49.910;35.562;2023-05-29T12:15:42;99413.78;;;25.80;35.75
73692;BME280;61996;49.910;35.562;2023-05-29T12:18:45;99417.97;;;25.83;35.70
73692;BME280;61996;49.910;35.562;2023-05-29T12:21:48;99409.69;;;25.84;35.90
73692;BME280;61996;49.910;35.562;2023-05-29T12:24:51;99406.44;;;25.89;35.39
73692;BME280;61996;49.910;35.562;2023-05-29T12:27:55;99400.38;;;25.87;35.48
73692;BME280;61996;49.910;35.562;2023-05-29T12:30:59;99398.53;;;25.87;35.79
73692;BME280;61996;49.910;35.562;2023-05-29T12:34:02;99407.69;;;25.93;35.63
73692;BME280;61996;49.910;35.562;2023-05-29T12:37:09;99395.25;;;25.92;35.51
73692;BME280;61996;49.910;35.562;2023-05-29T12:40:16;99395.91;;;25.94;35.54
73692;BME280;61996;49.910;35.562;2023-05-29T12:43:19;99401.31;;;25.94;35.62
73692;BME280;61996;49.910;35.562;2023-05-29T12:46:24;99392.84;;;25.97;35.37
73692;BME280;61996;49.910;35.562;2023-05-29T12:49:27;99405.66;;;25.95;35.69
73692;BME280;61996;49.910;35.562;2023-05-29T12:52:32;99399.88;;;25.98;35.46
73692;BME280;61996;49.910;35.562;2023-05-29T12:55:35;99394.97;;;26.02;35.56
73692;BME280;61996;49.910;35.562;2023-05-29T12:58:43;99394.38;;;26.06;35.44
73692;BME280;61996;49.910;35.562;2023-05-29T13:01:47;99385.66;;;26.04;35.27
73692;BME280;61996;49.910;35.562;2023-05-29T13:04:50;99383.44;;;26.08;36.05
73692;BME280;61996;49.910;35.562;2023-05-29T13:07:53;99381.78;;;26.13;36.26
73692;BME280;61996;49.910;35.562;2023-05-29T13:10:56;99385.72;;;26.11;36.70
73692;BME280;61996;49.910;35.562;2023-05-29T13:13:59;99381.16;;;26.11;36.47
73692;BME280;61996;49.910;35.562;2023-05-29T13:17:06;99378.59;;;26.03;37.32
73692;BME280;61996;49.910;35.562;2023-05-29T13:20:10;99376.53;;;26.05;35.61
73692;BME280;61996;49.910;35.562;2023-05-29T13:23:13;99368.53;;;26.12;36.54
73692;BME280;61996;49.910;35.562;2023-05-29T13:26:16;99373.06;;;26.11;37.29
73692;BME280;61996;49.910;35.562;2023-05-29T13:29:19;99370.38;;;26.11;35.48
73692;BME280;61996;49.910;35.562;2023-05-29T13:32:23;99365.00;;;26.11;36.80
73692;BME280;61996;49.910;35.562;2023-05-29T13:35:26;99359.47;;;26.19;35.45
73692;BME280;61996;49.910;35.562;2023-05-29T13:38:30;99354.28;;;26.18;35.65
73692;BME280;61996;49.910;35.562;2023-05-29T13:41:33;99353.44;;;26.17;36.09
73692;BME280;61996;49.910;35.562;2023-05-29T13:44:36;99352.69;;;26.23;35.48
73692;BME280;61996;49.910;35.562;2023-05-29T13:47:41;99358.44;;;26.20;35.53
73692;BME280;61996;49.910;35.562;2023-05-29T13:50:44;99352.00;;;26.21;36.10
73692;BME280;61996;49.910;35.562;2023-05-29T13:53:46;99351.25;;;26.28;35.66
73692;BME280;61996;49.910;35.562;2023-05-29T13:56:50;99349.56;;;26.27;35.13
73692;BME280;61996;49.910;35.562;2023-05-29T13:59:53;99352.47;;;26.25;35.36
73692;BME280;61996;49.910;35.562;2023-05-29T14:02:57;99349.78;;;26.25;35.78
73692;BME280;61996;49.910;35.562;2023-05-29T14:06:00;99340.22;;;26.22;35.46
73692;BME280;61996;49.910;35.562;2023-05-29T14:09:04;99348.94;;;26.24;34.83
73692;BME280;61996;49.910;35.562;2023-05-29T14:12:11;99345.84;;;26.28;35.18
73692;BME280;61996;49.910;35.562;2023-05-29T14:15:14;99345.03;;;26.27;35.16
73692;BME280;61996;49.910;35.562;2023-05-29T14:18:18;99343.81;;;26.30;35.47
73692;BME280;61996;49.910;35.562;2023-05-29T14:21:21;99338.59;;;26.28;35.03
73692;BME280;61996;49.910;35.562;2023-05-29T14:24:24;99336.94;;;26.27;35.18
73692;BME280;61996;49.910;35.562;2023-05-29T14:27:27;99338.75;;;26.20;35.26
73692;BME280;61996;49.910;35.562;2023-05-29T14:30:30;99337.47;;;26.16;34.34
73692;BME280;61996;49.910;35.562;2023-05-29T14:33:34;99334.31;;;26.12;34.59
73692;BME280;61996;49.910;35.562;2023-05-29T14:36:38;99336.69;;;26.01;34.29
73692;BME280;61996;49.910;35.562;2023-05-29T14:39:41;99341.31;;;25.70;34.43
73692;BME280;61996;49.910;35.562;2023-05-29T14:42:44;99340.94;;;25.88;34.59
73692;BME280;61996;49.910;35.562;2023-05-29T14:45:49;99339.22;;;25.81;34.50
73692;BME280;61996;49.910;35.562;2023-05-29T14:48:54;99343.75;;;25.65;34.78
73692;BME280;61996;49.910;35.562;2023-05-29T14:51:57;99345.06;;;25.69;34.78
73692;BME280;61996;49.910;35.562;2023-05-29T14:55:01;99337.28;;;25.96;34.57
73692;BME280;61996;49.910;35.562;2023-05-29T14:58:06;99347.28;;;26.02;35.35
73692;BME280;61996;49.910;35.562;2023-05-29T15:01:09;99342.03;;;26.15;35.27
73692;BME280;61996;49.910;35.562;2023-05-29T15:04:13;99344.59;;;25.81;34.53
73692;BME280;61996;49.910;35.562;2023-05-29T15:07:16;99348.56;;;26.06;34.97
73692;BME280;61996;49.910;35.562;2023-05-29T15:10:19;99339.72;;;26.12;34.74
73692;BME280;61996;49.910;35.562;2023-05-29T15:13:22;99337.28;;;26.17;34.90
73692;BME280;61996;49.910;35.562;2023-05-29T15:16:26;99334.59;;;26.17;34.34
73692;BME280;61996;49.910;35.562;2023-05-29T15:19:30;99336.72;;;26.22;35.18
73692;BME280;61996;49.910;35.562;2023-05-29T15:22:33;99330.84;;;26.18;34.92
73692;BME280;61996;49.910;35.562;2023-05-29T15:25:36;99338.31;;;26.16;34.97
73692;BME280;61996;49.910;35.562;2023-05-29T15:28:39;99340.81;;;26.18;34.94
73692;BME280;61996;49.910;35.562;2023-05-29T15:31:42;99332.16;;;26.22;34.71
73692;BME280;61996;49.910;35.562;2023-05-29T15:34:46;99335.66;;;26.23;34.70
73692;BME280;61996;49.910;35.562;2023-05-29T15:37:49;99341.50;;;26.27;35.43
73692;BME280;61996;49.910;35.562;2023-05-29T15:40:52;99339.25;;;26.30;35.24
73692;BME280;61996;49.910;35.562;2023-05-29T15:43:55;99343.22;;;26.34;35.43
73692;BME280;61996;49.910;35.562;2023-05-29T15:46:58;99337.19;;;26.32;35.66
73692;BME280;61996;49.910;35.562;2023-05-29T15:50:03;99350.28;;;26.35;35.73
73692;BME280;61996;49.910;35.562;2023-05-29T15:53:06;99331.84;;;26.39;35.49
73692;BME280;61996;49.910;35.562;2023-05-29T15:56:09;99344.78;;;26.43;35.17
73692;BME280;61996;49.910;35.562;2023-05-29T15:59:12;99336.41;;;26.38;35.23
73692;BME280;61996;49.910;35.562;2023-05-29T16:02:14;99333.56;;;26.40;35.25
73692;BME280;61996;49.910;35.562;2023-05-29T16:05:19;99339.94;;;26.39;35.37
73692;BME280;61996;49.910;35.562;2023-05-29T16:08:24;99346.38;;;26.38;35.49
73692;BME280;61996;49.910;35.562;2023-05-29T16:11:27;99348.03;;;26.39;35.45
73692;BME280;61996;49.910;35.562;2023-05-29T16:14:29;99341.25;;;26.43;35.34
73692;BME280;61996;49.910;35.562;2023-05-29T16:17:34;99341.63;;;26.40;35.24
73692;BME280;61996;49.910;35.562;2023-05-29T16:20:39;99334.56;;;26.39;35.14
73692;BME280;61996;49.910;35.562;2023-05-29T16:23:41;99334.38;;;26.40;35.29
73692;BME280;61996;49.910;35.562;2023-05-29T16:26:44;99343.50;;;26.39;35.06
73692;BME280;61996;49.910;35.562;2023-05-29T16:29:47;99332.88;;;26.38;35.20
73692;BME280;61996;49.910;35.562;2023-05-29T16:32:50;99329.00;;;26.40;35.18
73692;BME280;61996;49.910;35.562;2023-05-29T16:35:55;99325.00;;;26.36;35.08
73692;BME280;61996;49.910;35.562;2023-05-29T16:38:58;99318.56;;;26.37;34.88
73692;BME280;61996;49.910;35.562;2023-05-29T16:42:01;99323.97;;;26.37;35.31
73692;BME280;61996;49.910;35.562;2023-05-29T16:45:04;99323.50;;;26.34;35.47
73692;BME280;61996;49.910;35.562;2023-05-29T16:48:08;99328.53;;;26.37;35.44
73692;BME280;61996;49.910;35.562;2023-05-29T16:51:12;99311.69;;;26.35;35.37
73692;BME280;61996;49.910;35.562;2023-05-29T16:54:15;99309.66;;;26.37;35.37
73692;BME280;61996;49.910;35.562;2023-05-29T16:57:18;99306.50;;;26.33;35.39
73692;BME280;61996;49.910;35.562;2023-05-29T17:00:21;99304.44;;;26.35;35.32
73692;BME280;61996;49.910;35.562;2023-05-29T17:03:25;99296.97;;;26.31;35.77
73692;BME280;61996;49.910;35.562;2023-05-29T17:06:30;99298.63;;;26.32;35.70
73692;BME280;61996;49.910;35.562;2023-05-29T17:09:33;99296.13;;;26.30;35.58
73692;BME280;61996;49.910;35.562;2023-05-29T17:12:35;99295.28;;;26.30;35.49
73692;BME280;61996;49.910;35.562;2023-05-29T17:15:40;99290.72;;;26.30;35.69